createdAt,value
2019-06-10T00:01:43.311Z,16.67
2019-06-10T00:04:12.960Z,12.83
2019-06-10T00:06:42.657Z,11.23
2019-06-10T00:09:12.372Z,13.40
2019-06-10T00:11:42.139Z,11.17
2019-06-10T00:14:11.739Z,9.13
2019-06-10T00:16:41.727Z,9.83
2019-06-10T00:19:12.705Z,12.07
2019-06-10T00:21:42.545Z,12.43
2019-06-10T00:24:12.163Z,9.00
2019-06-10T00:26:43.333Z,10.60
2019-06-10T00:29:12.959Z,13.23
2019-06-10T00:31:42.575Z,10.63
2019-06-10T00:34:12.590Z,11.90
2019-06-10T00:36:42.454Z,8.77
2019-06-10T00:39:13.534Z,11.40
2019-06-10T00:41:43.512Z,9.47
2019-06-10T00:44:13.295Z,10.33
2019-06-10T00:46:42.933Z,12.77
2019-06-10T00:49:15.355Z,13.93
2019-06-10T00:51:44.990Z,11.53
2019-06-10T00:54:15.757Z,12.00
2019-06-10T00:56:45.590Z,12.63
2019-06-10T00:59:15.546Z,10.47
2019-06-10T01:01:45.289Z,10.77
2019-06-10T01:04:16.673Z,11.10
2019-06-10T01:06:46.307Z,12.13
2019-06-10T01:09:16.003Z,13.50
2019-06-10T01:11:45.600Z,12.67
2019-06-10T01:14:15.567Z,12.33
2019-06-10T01:16:45.475Z,12.50
2019-06-10T01:19:15.757Z,8.27
2019-06-10T01:21:45.594Z,9.03
2019-06-10T01:24:15.197Z,13.10
2019-06-10T01:26:44.863Z,9.30
2019-06-10T01:29:15.562Z,11.07
2019-06-10T01:31:46.908Z,10.13
2019-06-10T01:34:18.456Z,13.13
2019-06-10T01:36:48.144Z,9.20
2019-06-10T01:39:18.081Z,8.83
2019-06-10T01:41:47.836Z,8.93
2019-06-10T01:44:17.746Z,13.33
2019-06-10T01:46:51.603Z,10.43
2019-06-10T01:49:21.414Z,11.83
2019-06-10T01:51:51.694Z,9.90
2019-06-10T01:54:21.593Z,17.03
2019-06-10T01:56:51.377Z,9.97
2019-06-10T01:59:22.056Z,8.87
2019-06-10T02:02:02.362Z,10.47
2019-06-10T02:04:32.321Z,11.60
2019-06-10T02:07:02.233Z,14.43
2019-06-10T02:09:31.925Z,13.97
2019-06-10T02:12:02.168Z,14.07
2019-06-10T02:14:33.555Z,11.13
2019-06-10T02:17:03.181Z,14.27
2019-06-10T02:19:32.781Z,11.00
2019-06-10T02:22:02.416Z,14.20
2019-06-10T02:24:32.025Z,10.87
2019-06-10T02:27:02.493Z,14.27
2019-06-10T02:29:33.648Z,12.07
2019-06-10T02:32:05.187Z,11.13
2019-06-10T02:34:42.809Z,9.30
2019-06-10T02:37:06.428Z,10.63
2019-06-10T02:39:39.000Z,12.43
2019-06-10T02:42:14.816Z,9.70
2019-06-10T02:44:44.597Z,7.77
2019-06-10T02:47:19.089Z,14.53
2019-06-10T02:49:56.969Z,9.70
2019-06-10T02:52:23.153Z,13.53
2019-06-10T02:54:53.672Z,9.60
2019-06-10T02:57:31.893Z,16.87
2019-06-10T02:59:55.551Z,8.67
2019-06-10T03:02:31.382Z,11.93
2019-06-10T03:04:56.509Z,9.07
2019-06-10T03:07:29.335Z,9.70
2019-06-10T03:09:57.594Z,13.40
2019-06-10T03:12:28.194Z,14.33
2019-06-10T03:14:57.958Z,12.87
2019-06-10T03:17:28.269Z,9.60
2019-06-10T03:19:57.971Z,10.13
2019-06-10T03:22:28.488Z,9.97
2019-06-10T03:24:58.274Z,14.83
2019-06-10T03:27:28.027Z,12.93
2019-06-10T03:29:57.668Z,9.53
2019-06-10T03:32:33.308Z,10.90
2019-06-10T03:34:58.719Z,11.50
2019-06-10T03:37:29.556Z,9.67
2019-06-10T03:39:59.119Z,11.73
2019-06-10T03:42:28.779Z,10.53
2019-06-10T03:44:58.406Z,8.93
2019-06-10T03:47:28.848Z,9.80
2019-06-10T03:49:58.597Z,13.03
2019-06-10T03:52:28.624Z,11.27
2019-06-10T03:54:58.306Z,11.47
2019-06-10T03:57:28.669Z,12.50
2019-06-10T03:59:58.431Z,10.27
2019-06-10T04:02:29.859Z,13.10
2019-06-10T04:04:59.502Z,11.53
2019-06-10T04:07:31.147Z,12.63
2019-06-10T04:10:02.267Z,11.30
2019-06-10T04:12:32.750Z,9.57
2019-06-10T04:15:03.189Z,13.97
2019-06-10T04:17:33.436Z,10.83
2019-06-10T04:20:11.527Z,14.97
2019-06-10T04:22:35.049Z,13.90
2019-06-10T04:25:07.683Z,11.47
2019-06-10T04:27:37.314Z,12.10
2019-06-10T04:30:08.412Z,8.83
2019-06-10T04:32:38.039Z,11.00
2019-06-10T04:35:07.880Z,11.63
2019-06-10T04:37:37.480Z,13.57
2019-06-10T04:40:08.716Z,13.80
2019-06-10T04:42:38.319Z,9.47
2019-06-10T04:45:12.306Z,12.00
2019-06-10T04:47:43.163Z,9.30
2019-06-10T04:50:24.679Z,9.10
2019-06-10T04:52:44.480Z,14.50
2019-06-10T04:55:15.879Z,8.70
2019-06-10T04:57:45.477Z,11.35
2019-06-10T05:00:15.441Z,9.28
2019-06-10T05:02:45.126Z,11.97
2019-06-10T05:05:16.877Z,7.65
2019-06-10T05:07:46.498Z,7.20
2019-06-10T05:10:19.047Z,9.65
2019-06-10T05:12:52.455Z,10.93
2019-06-10T05:15:24.307Z,12.18
2019-06-10T05:17:53.082Z,12.30
2019-06-10T05:20:39.105Z,12.47
2019-06-10T05:22:54.023Z,9.73
2019-06-10T05:25:28.481Z,11.33
2019-06-10T05:27:58.095Z,13.45
2019-06-10T05:30:29.110Z,10.18
2019-06-10T05:32:59.058Z,8.30
2019-06-10T05:35:29.949Z,16.60
2019-06-10T05:38:02.261Z,7.47
2019-06-10T05:40:34.055Z,11.63
2019-06-10T05:43:02.689Z,13.03
2019-06-10T05:45:34.865Z,9.83
2019-06-10T05:48:03.749Z,7.47
2019-06-10T05:50:35.179Z,12.40
2019-06-10T05:53:04.855Z,8.65
2019-06-10T05:55:35.259Z,8.03
2019-06-10T05:58:05.152Z,12.00
2019-06-10T06:00:35.527Z,12.10
2019-06-10T06:03:05.588Z,12.95
2019-06-10T06:05:37.651Z,9.63
2019-06-10T06:08:08.961Z,8.05
2019-06-10T06:10:38.302Z,9.30
2019-06-10T06:13:07.994Z,9.18
2019-06-10T06:15:38.064Z,15.38
2019-06-10T06:18:10.585Z,9.68
2019-06-10T06:20:39.244Z,12.45
2019-06-10T06:23:09.335Z,13.53
2019-06-10T06:25:43.346Z,12.70
2019-06-10T06:28:12.952Z,16.45
2019-06-10T06:30:42.321Z,9.48
2019-06-10T06:33:13.594Z,14.75
2019-06-10T06:35:46.351Z,9.45
2019-06-10T06:38:14.852Z,9.58
2019-06-10T06:40:44.446Z,10.13
2019-06-10T06:43:14.078Z,14.35
2019-06-10T06:45:43.674Z,8.95
2019-06-10T06:48:13.305Z,11.10
2019-06-10T06:51:00.420Z,9.35
2019-06-10T06:53:25.650Z,11.00
2019-06-10T06:55:46.007Z,10.95
2019-06-10T06:58:15.599Z,9.70
2019-06-10T07:01:00.561Z,9.75
2019-06-10T07:03:18.151Z,9.33
2019-06-10T07:05:47.883Z,15.55
2019-06-10T07:08:18.420Z,11.00
2019-06-10T07:10:48.928Z,11.35
2019-06-10T07:13:18.691Z,10.13
2019-06-10T07:15:48.600Z,14.07
2019-06-10T07:18:18.223Z,11.60
2019-06-10T07:20:47.925Z,8.10
2019-06-10T07:23:17.552Z,10.90
2019-06-10T07:25:47.820Z,8.75
2019-06-10T07:28:17.822Z,9.45
2019-06-10T07:30:52.738Z,11.03
2019-06-10T07:33:22.551Z,11.50
2019-06-10T07:35:52.521Z,11.40
2019-06-10T07:38:26.211Z,11.45
2019-06-10T07:40:57.409Z,10.58
2019-06-10T07:43:27.003Z,9.60
2019-06-10T07:45:59.141Z,7.72
2019-06-10T07:48:28.039Z,8.20
2019-06-10T07:50:57.674Z,9.58
2019-06-10T07:53:27.266Z,13.55
2019-06-10T07:55:56.887Z,16.37
2019-06-10T07:58:28.698Z,10.03
2019-06-10T08:00:57.839Z,11.22
2019-06-10T08:03:27.440Z,8.65
2019-06-10T08:05:57.138Z,11.10
2019-06-10T08:08:26.736Z,11.70
2019-06-10T08:10:56.368Z,12.40
2019-06-10T08:13:27.786Z,11.75
2019-06-10T08:15:57.417Z,18.48
2019-06-10T08:18:27.035Z,10.95
2019-06-10T08:20:56.723Z,9.38
2019-06-10T08:23:26.568Z,11.20
2019-06-10T08:25:57.703Z,13.35
2019-06-10T08:28:27.757Z,7.67
2019-06-10T08:30:57.520Z,10.70
2019-06-10T08:33:27.146Z,11.55
2019-06-10T08:36:00.417Z,11.55
2019-06-10T08:38:28.206Z,8.35
2019-06-10T08:40:57.815Z,11.20
2019-06-10T08:43:27.720Z,20.00
2019-06-10T08:45:57.315Z,13.53
2019-06-10T08:48:26.964Z,18.77
2019-06-10T08:50:56.614Z,8.83
2019-06-10T08:53:26.239Z,10.98
2019-06-10T08:55:55.846Z,12.47
2019-06-10T08:58:27.089Z,8.15
2019-06-10T09:00:56.822Z,8.85
2019-06-10T09:03:26.456Z,10.75
2019-06-10T09:05:58.247Z,9.73
2019-06-10T09:08:27.395Z,10.55
2019-06-10T09:10:57.033Z,12.80
2019-06-10T09:13:26.633Z,8.58
2019-06-10T09:16:11.721Z,8.85
2019-06-10T09:18:27.659Z,12.58
2019-06-10T09:20:57.256Z,21.48
2019-06-10T09:23:28.591Z,9.63
2019-06-10T09:25:58.228Z,11.57
2019-06-10T09:28:27.827Z,27.55
2019-06-10T09:30:59.447Z,12.37
2019-06-10T09:33:28.863Z,14.70
2019-06-10T09:35:58.554Z,18.10
2019-06-10T09:38:28.160Z,15.60
2019-06-10T09:41:01.841Z,12.03
2019-06-10T09:43:29.544Z,15.45
2019-06-10T09:45:59.712Z,14.25
2019-06-10T09:48:33.324Z,11.53
2019-06-10T09:51:02.458Z,13.28
2019-06-10T09:53:41.419Z,36.05
2019-06-10T09:56:04.976Z,7.95
2019-06-10T09:58:34.672Z,9.93
2019-06-10T10:01:05.541Z,13.70
2019-06-10T10:03:36.756Z,12.05
2019-06-10T10:06:13.987Z,13.55
2019-06-10T10:08:38.900Z,12.65
2019-06-10T10:11:08.515Z,11.00
2019-06-10T10:13:45.002Z,10.40
2019-06-10T10:16:13.115Z,15.80
2019-06-10T10:18:48.292Z,14.05
2019-06-10T10:21:15.901Z,8.68
2019-06-10T10:23:57.803Z,12.03
2019-06-10T10:26:16.932Z,14.75
2019-06-10T10:28:51.761Z,16.93
2019-06-10T10:31:23.972Z,14.93
2019-06-10T10:33:53.887Z,7.40
2019-06-10T10:36:23.551Z,15.40
2019-06-10T10:38:55.897Z,9.23
2019-06-10T10:41:27.035Z,12.30
2019-06-10T10:43:58.514Z,11.97
2019-06-10T10:46:32.618Z,12.80
2019-06-10T10:49:02.792Z,16.60
2019-06-10T10:51:32.764Z,11.65
2019-06-10T10:54:21.045Z,12.73
2019-06-10T10:56:34.089Z,16.37
2019-06-10T10:59:05.089Z,10.32
2019-06-10T11:01:35.426Z,11.20
2019-06-10T11:04:06.259Z,36.33
2019-06-10T11:06:35.953Z,18.85
2019-06-10T11:09:09.037Z,13.83
2019-06-10T11:11:44.537Z,14.68
2019-06-10T11:14:16.264Z,14.10
2019-06-10T11:16:49.490Z,16.17
2019-06-10T11:19:17.244Z,9.48
2019-06-10T11:21:49.475Z,15.32
2019-06-10T11:24:33.562Z,13.18
2019-06-10T11:26:54.531Z,15.43
2019-06-10T11:29:21.962Z,13.98
2019-06-10T11:31:55.144Z,9.08
2019-06-10T11:34:22.973Z,16.60
2019-06-10T11:36:55.034Z,11.50
2019-06-10T11:39:24.085Z,13.15
2019-06-10T11:41:55.997Z,13.35
2019-06-10T11:44:25.108Z,14.10
2019-06-10T11:46:57.684Z,16.97
2019-06-10T11:49:26.137Z,16.30
2019-06-10T11:51:56.468Z,17.02
2019-06-10T11:54:27.250Z,12.63
2019-06-10T11:56:58.599Z,15.35
2019-06-10T11:59:28.280Z,15.40
2019-06-10T12:02:01.646Z,14.93
2019-06-10T12:04:29.238Z,15.18
2019-06-10T12:06:59.087Z,14.58
2019-06-10T12:09:28.907Z,18.95
2019-06-10T12:12:01.972Z,16.42
2019-06-10T12:14:32.458Z,10.95
2019-06-10T12:17:32.783Z,16.87
2019-06-10T12:19:34.336Z,14.98
2019-06-10T12:22:07.541Z,17.12
2019-06-10T12:24:37.039Z,16.12
2019-06-10T12:27:08.157Z,20.75
2019-06-10T12:29:37.781Z,10.10
2019-06-10T12:32:07.839Z,12.82
2019-06-10T12:34:37.555Z,22.10
2019-06-10T12:37:11.064Z,19.27
2019-06-10T12:39:38.614Z,22.05
2019-06-10T12:42:13.613Z,15.58
2019-06-10T12:44:42.902Z,17.00
2019-06-10T12:47:12.607Z,21.82
2019-06-10T12:49:42.733Z,13.93
2019-06-10T12:52:12.924Z,20.75
2019-06-10T12:54:42.625Z,21.10
2019-06-10T12:57:12.485Z,16.35
2019-06-10T12:59:45.162Z,18.82
2019-06-10T13:02:23.114Z,21.62
2019-06-10T13:04:48.884Z,19.42
2019-06-10T13:07:19.063Z,23.35
2019-06-10T13:09:48.763Z,12.10
2019-06-10T13:12:18.362Z,19.00
2019-06-10T13:14:49.098Z,13.25
2019-06-10T13:17:18.699Z,22.67
2019-06-10T13:19:48.431Z,18.90
2019-06-10T13:22:18.100Z,20.15
2019-06-10T13:24:47.727Z,20.27
2019-06-10T13:27:17.334Z,21.97
2019-06-10T13:29:46.963Z,16.65
2019-06-10T13:32:16.570Z,21.37
2019-06-10T13:34:46.204Z,24.15
2019-06-10T13:37:16.295Z,20.70
2019-06-10T13:39:46.007Z,21.82
2019-06-10T13:42:15.610Z,17.07
2019-06-10T13:44:45.402Z,22.42
2019-06-10T13:47:15.156Z,19.17
2019-06-10T13:49:49.239Z,17.57
2019-06-10T13:52:16.982Z,19.85
2019-06-10T13:54:46.781Z,18.55
2019-06-10T13:57:16.384Z,20.88
2019-06-10T13:59:46.526Z,18.80
2019-06-10T14:02:16.301Z,17.92
2019-06-10T14:04:45.905Z,28.23
2019-06-10T14:07:17.346Z,26.40
2019-06-10T14:09:46.952Z,19.55
2019-06-10T14:12:17.339Z,30.37
2019-06-10T14:14:47.507Z,36.23
2019-06-10T14:17:19.441Z,17.07
2019-06-10T14:19:48.612Z,24.80
2019-06-10T14:22:18.265Z,20.68
2019-06-10T14:24:47.867Z,20.55
2019-06-10T14:27:21.380Z,20.85
2019-06-10T14:29:48.886Z,19.10
2019-06-10T14:32:18.485Z,20.80
2019-06-10T14:34:48.104Z,25.02
2019-06-10T14:37:32.116Z,26.68
2019-06-10T14:39:52.758Z,17.82
2019-06-10T14:42:23.119Z,17.10
2019-06-10T14:44:52.865Z,19.73
2019-06-10T14:47:23.096Z,25.23
2019-06-10T14:49:53.050Z,23.92
2019-06-10T14:52:24.466Z,22.77
2019-06-10T14:54:57.438Z,20.15
2019-06-10T14:57:25.403Z,18.23
2019-06-10T14:59:55.036Z,21.52
2019-06-10T15:02:24.663Z,23.62
2019-06-10T15:04:55.802Z,22.80
2019-06-10T15:07:25.423Z,27.22
2019-06-10T15:09:55.023Z,20.15
2019-06-10T15:12:24.647Z,20.50
2019-06-10T15:14:54.247Z,17.45
2019-06-10T15:17:23.892Z,24.07
2019-06-10T15:19:53.557Z,29.95
2019-06-10T15:22:23.731Z,22.35
2019-06-10T15:24:53.460Z,21.93
2019-06-10T15:27:29.858Z,21.25
2019-06-10T15:29:54.500Z,19.42
2019-06-10T15:32:33.731Z,21.82
2019-06-10T15:34:55.453Z,23.65
2019-06-10T15:37:28.653Z,21.52
2019-06-10T15:39:56.497Z,20.95
2019-06-10T15:42:28.651Z,27.87
2019-06-10T15:44:57.444Z,22.10
2019-06-10T15:47:29.835Z,24.10
2019-06-10T15:49:59.502Z,25.00
2019-06-10T15:52:29.131Z,20.85
2019-06-10T15:54:58.727Z,17.10
2019-06-10T15:57:39.492Z,21.68
2019-06-10T15:59:59.714Z,19.50
2019-06-10T16:02:29.336Z,20.02
2019-06-10T16:04:58.950Z,18.98
2019-06-10T16:07:28.550Z,18.42
2019-06-10T16:09:58.173Z,21.65
2019-06-10T16:12:27.774Z,22.58
2019-06-10T16:14:57.474Z,16.95
2019-06-10T16:17:29.954Z,19.05
2019-06-10T16:19:58.426Z,26.65
2019-06-10T16:22:28.052Z,22.22
2019-06-10T16:24:57.657Z,24.63
2019-06-10T16:27:43.703Z,22.98
2019-06-10T16:29:58.604Z,24.95
2019-06-10T16:32:28.237Z,25.37
2019-06-10T16:34:57.858Z,25.45
2019-06-10T16:37:27.466Z,26.00
2019-06-10T16:40:00.271Z,33.28
2019-06-10T16:42:32.038Z,21.90
2019-06-10T16:45:02.550Z,30.68
2019-06-10T16:47:32.687Z,33.10
2019-06-10T16:50:03.311Z,29.30
2019-06-10T16:52:34.288Z,24.27
2019-06-10T16:55:05.536Z,20.75
2019-06-10T16:57:35.141Z,32.60
2019-06-10T17:00:13.859Z,36.68
2019-06-10T17:02:42.526Z,18.70
2019-06-10T17:05:12.181Z,32.70
2019-06-10T17:07:43.490Z,25.65
2019-06-10T17:10:13.609Z,36.85
2019-06-10T17:12:43.311Z,23.38
2019-06-10T17:15:13.508Z,41.15
2019-06-10T17:17:43.139Z,49.95
2019-06-10T17:20:13.679Z,31.93
2019-06-10T17:22:43.555Z,28.40
2019-06-10T17:25:13.678Z,23.65
2019-06-10T17:27:43.281Z,26.07
2019-06-10T17:30:14.760Z,21.10
2019-06-10T17:32:44.390Z,17.42
2019-06-10T17:35:15.883Z,25.75
2019-06-10T17:37:45.513Z,21.85
2019-06-10T17:40:15.732Z,30.90
2019-06-10T17:42:45.371Z,22.32
2019-06-10T17:45:15.680Z,28.90
2019-06-10T17:47:46.767Z,19.40
2019-06-10T17:50:16.970Z,23.15
2019-06-10T17:52:46.606Z,20.90
2019-06-10T17:55:16.461Z,18.77
2019-06-10T17:57:47.553Z,33.50
2019-06-10T18:00:18.177Z,27.00
2019-06-10T18:02:47.783Z,24.50
2019-06-10T18:05:17.420Z,23.00
2019-06-10T18:07:47.056Z,24.20
2019-06-10T18:10:18.274Z,20.90
2019-06-10T18:12:47.892Z,18.20
2019-06-10T18:15:18.198Z,20.60
2019-06-10T18:17:48.367Z,21.30
2019-06-10T18:20:19.110Z,21.05
2019-06-10T18:22:48.724Z,26.55
2019-06-10T18:25:18.592Z,26.95
2019-06-10T18:27:48.208Z,22.40
2019-06-10T18:30:18.356Z,21.85
2019-06-10T18:32:49.492Z,22.32
2019-06-10T18:35:22.349Z,26.97
2019-06-10T18:37:52.917Z,19.05
2019-06-10T18:40:23.232Z,22.22
2019-06-10T18:42:52.909Z,31.62
2019-06-10T18:45:24.001Z,26.90
2019-06-10T18:47:53.635Z,22.67
2019-06-10T18:50:25.976Z,20.43
2019-06-10T18:52:57.358Z,23.60
2019-06-10T18:55:28.534Z,25.77
2019-06-10T18:57:58.127Z,22.77
2019-06-10T19:00:44.985Z,29.23
2019-06-10T19:03:10.479Z,21.93
2019-06-10T19:05:33.106Z,22.15
2019-06-10T19:08:02.558Z,21.35
2019-06-10T19:10:34.262Z,18.15
2019-06-10T19:13:03.604Z,21.93
2019-06-10T19:15:33.644Z,23.18
2019-06-10T19:18:03.351Z,24.00
2019-06-10T19:20:36.964Z,20.90
2019-06-10T19:23:04.557Z,24.35
2019-06-10T19:25:37.274Z,25.85
2019-06-10T19:28:05.848Z,26.40
2019-06-10T19:30:37.686Z,27.82
2019-06-10T19:33:07.033Z,21.97
2019-06-10T19:35:38.177Z,21.15
2019-06-10T19:38:12.597Z,25.88
2019-06-10T19:40:42.899Z,18.35
2019-06-10T19:43:13.347Z,22.50
2019-06-10T19:45:44.188Z,19.37
2019-06-10T19:48:13.820Z,20.02
2019-06-10T19:50:49.944Z,18.95
2019-06-10T19:53:14.858Z,18.50
2019-06-10T19:55:46.084Z,28.15
2019-06-10T19:58:15.882Z,20.82
2019-06-10T20:00:50.794Z,24.65
2019-06-10T20:03:16.861Z,18.65
2019-06-10T20:05:47.258Z,24.45
2019-06-10T20:08:16.905Z,26.48
2019-06-10T20:10:46.539Z,23.50
2019-06-10T20:13:16.212Z,33.42
2019-06-10T20:15:47.092Z,30.48
2019-06-10T20:18:17.201Z,28.10
2019-06-10T20:20:47.625Z,24.30
2019-06-10T20:23:18.306Z,23.18
2019-06-10T20:25:48.863Z,27.15
2019-06-10T20:28:18.555Z,20.48
2019-06-10T20:30:49.135Z,32.58
2019-06-10T20:33:20.568Z,32.88
2019-06-10T20:35:50.197Z,25.97
2019-06-10T20:38:22.210Z,22.42
2019-06-10T20:40:53.067Z,23.57
2019-06-10T20:43:22.541Z,17.32
2019-06-10T20:45:52.185Z,16.65
2019-06-10T20:48:24.921Z,24.67
2019-06-10T20:50:54.544Z,23.27
2019-06-10T20:53:24.149Z,25.43
2019-06-10T20:55:57.394Z,25.00
2019-06-10T20:58:25.113Z,24.63
2019-06-10T21:00:57.186Z,21.68
2019-06-10T21:03:26.804Z,18.77
2019-06-10T21:06:02.932Z,21.75
2019-06-10T21:08:34.049Z,22.80
2019-06-10T21:11:03.647Z,20.70
2019-06-10T21:13:33.427Z,26.00
2019-06-10T21:16:03.974Z,18.95
2019-06-10T21:18:33.667Z,24.65
2019-06-10T21:21:03.608Z,26.50
2019-06-10T21:23:33.320Z,22.73
2019-06-10T21:26:03.272Z,20.57
2019-06-10T21:28:33.038Z,23.10
2019-06-10T21:31:03.057Z,28.60
2019-06-10T21:33:33.472Z,24.45
2019-06-10T21:36:03.812Z,24.70
2019-06-10T21:38:33.890Z,22.80
2019-06-10T21:41:03.575Z,22.87
2019-06-10T21:43:33.360Z,23.55
2019-06-10T21:46:03.885Z,19.65
2019-06-10T21:48:33.732Z,21.90
2019-06-10T21:51:03.343Z,21.07
2019-06-10T21:53:32.976Z,20.75
2019-06-10T21:56:02.584Z,19.75
2019-06-10T21:58:32.852Z,20.57
2019-06-10T22:01:12.443Z,18.10
2019-06-10T22:03:36.635Z,23.47
2019-06-10T22:06:06.241Z,19.20
2019-06-10T22:08:35.950Z,21.65
2019-06-10T22:11:05.848Z,21.25
2019-06-10T22:13:35.574Z,27.15
2019-06-10T22:16:05.510Z,15.95
2019-06-10T22:18:35.108Z,18.75
2019-06-10T22:21:04.910Z,21.50
2019-06-10T22:23:34.515Z,22.10
2019-06-10T22:26:04.144Z,22.13
2019-06-10T22:28:33.746Z,24.40
2019-06-10T22:31:18.173Z,18.52
2019-06-10T22:33:34.764Z,18.50
2019-06-10T22:36:04.754Z,31.42
2019-06-10T22:38:34.389Z,25.43
2019-06-10T22:41:04.086Z,23.05
2019-06-10T22:43:33.687Z,28.50
2019-06-10T22:46:03.978Z,19.85
2019-06-10T22:48:33.865Z,24.72
2019-06-10T22:51:03.469Z,26.57
2019-06-10T22:53:33.446Z,21.77
2019-06-10T22:56:03.214Z,18.67
2019-06-10T22:58:32.961Z,17.20
2019-06-10T23:01:04.306Z,23.07
2019-06-10T23:03:34.140Z,27.95
2019-06-10T23:06:03.776Z,20.97
2019-06-10T23:08:33.545Z,20.70
2019-06-10T23:11:03.308Z,19.80
2019-06-10T23:13:33.056Z,25.48
2019-06-10T23:16:02.730Z,24.20
2019-06-10T23:18:32.314Z,19.10
2019-06-10T23:21:04.435Z,23.75
2019-06-10T23:23:33.262Z,26.37
2019-06-10T23:26:03.108Z,21.40
2019-06-10T23:28:32.906Z,26.82
2019-06-10T23:31:05.276Z,20.75
2019-06-10T23:33:34.174Z,15.98
2019-06-10T23:36:04.217Z,20.60
2019-06-10T23:38:33.989Z,25.57
2019-06-10T23:41:03.915Z,19.52
2019-06-10T23:43:34.061Z,21.02
2019-06-10T23:46:04.434Z,26.17
2019-06-10T23:48:34.381Z,19.65
2019-06-10T23:51:05.062Z,19.52
2019-06-10T23:53:34.887Z,20.15
2019-06-10T23:56:05.162Z,20.55
2019-06-10T23:58:35.021Z,22.40
